createdAt,value
2019-04-25T00:01:57.660Z,17.40
2019-04-25T00:04:27.698Z,17.60
2019-04-25T00:06:57.004Z,17.50
2019-04-25T00:09:28.430Z,17.70
2019-04-25T00:11:59.693Z,17.70
2019-04-25T00:14:31.468Z,17.80
2019-04-25T00:17:01.750Z,17.90
2019-04-25T00:19:31.669Z,17.90
2019-04-25T00:22:09.018Z,17.60
2019-04-25T00:25:15.890Z,17.50
2019-04-25T00:27:43.257Z,17.60
2019-04-25T00:30:11.364Z,17.70
2019-04-25T00:32:42.165Z,17.60
2019-04-25T00:35:11.818Z,17.70
2019-04-25T00:37:43.318Z,17.70
2019-04-25T00:40:13.474Z,17.50
2019-04-25T00:42:43.682Z,17.60
2019-04-25T00:45:14.166Z,17.70
2019-04-25T00:47:44.615Z,17.40
2019-04-25T00:50:14.321Z,17.20
2019-04-25T00:52:44.817Z,17.40
2019-04-25T00:55:25.922Z,17.60
2019-04-25T00:57:46.733Z,17.50
2019-04-25T01:00:41.670Z,17.30
2019-04-25T01:03:15.435Z,17.30
2019-04-25T01:05:45.692Z,17.40
2019-04-25T01:08:15.152Z,17.20
2019-04-25T01:10:44.434Z,17.30
2019-04-25T01:13:13.761Z,17.40
2019-04-25T01:15:42.925Z,17.50
2019-04-25T01:18:12.307Z,17.50
2019-04-25T01:20:43.313Z,17.60
2019-04-25T01:23:13.753Z,17.60
2019-04-25T01:25:44.665Z,17.50
2019-04-25T01:28:14.042Z,17.60
2019-04-25T01:30:43.867Z,17.70
2019-04-25T01:33:13.621Z,17.60
2019-04-25T01:36:00.887Z,17.60
2019-04-25T01:38:36.447Z,17.70
2019-04-25T01:41:14.606Z,17.70
2019-04-25T01:43:52.787Z,17.70
2019-04-25T01:46:21.118Z,17.70
2019-04-25T01:48:50.431Z,17.50
2019-04-25T01:51:19.710Z,17.20
2019-04-25T01:53:49.132Z,17.20
2019-04-25T01:56:18.338Z,17.20
2019-04-25T01:58:47.426Z,17.30
2019-04-25T02:01:16.591Z,17.20
2019-04-25T02:03:45.709Z,17.30
2019-04-25T02:06:14.842Z,17.40
2019-04-25T02:08:44.114Z,17.50
2019-04-25T02:11:31.409Z,17.50
2019-04-25T02:14:00.800Z,17.50
2019-04-25T02:16:30.385Z,17.50
2019-04-25T02:18:59.836Z,17.50
2019-04-25T02:21:29.112Z,17.40
2019-04-25T02:23:58.287Z,17.50
2019-04-25T02:26:27.506Z,17.20
2019-04-25T02:28:57.312Z,16.90
2019-04-25T02:31:26.765Z,16.80
2019-04-25T02:33:59.611Z,16.80
2019-04-25T02:36:26.910Z,16.90
2019-04-25T02:38:58.611Z,17.00
2019-04-25T02:41:26.843Z,17.20
2019-04-25T02:44:00.033Z,17.20
2019-04-25T02:46:45.860Z,17.10
2019-04-25T02:49:38.887Z,17.20
2019-04-25T02:52:15.652Z,17.10
2019-04-25T02:54:42.087Z,17.10
2019-04-25T02:57:11.178Z,17.20
2019-04-25T02:59:40.302Z,17.10
2019-04-25T03:02:09.500Z,16.90
2019-04-25T03:04:38.676Z,16.80
2019-04-25T03:07:11.067Z,16.70
2019-04-25T03:09:38.682Z,16.60
2019-04-25T03:12:09.323Z,16.60
2019-04-25T03:14:38.854Z,16.50
2019-04-25T03:17:09.844Z,16.50
2019-04-25T03:19:54.239Z,16.50
2019-04-25T03:22:26.832Z,16.50
2019-04-25T03:24:56.011Z,16.50
2019-04-25T03:27:25.386Z,16.50
2019-04-25T03:29:54.744Z,16.60
2019-04-25T03:32:27.867Z,16.60
2019-04-25T03:34:54.880Z,16.60
2019-04-25T03:37:24.207Z,16.50
2019-04-25T03:39:53.588Z,16.50
2019-04-25T03:42:23.963Z,16.50
2019-04-25T03:44:53.850Z,16.40
2019-04-25T03:47:23.600Z,16.40
2019-04-25T03:49:55.134Z,16.30
2019-04-25T03:52:23.953Z,16.40
2019-04-25T03:54:53.481Z,16.30
2019-04-25T03:57:23.263Z,16.30
2019-04-25T03:59:53.649Z,16.20
2019-04-25T04:02:23.496Z,16.20
2019-04-25T04:04:53.810Z,16.10
2019-04-25T04:07:23.723Z,16.10
2019-04-25T04:09:53.262Z,16.10
2019-04-25T04:12:24.354Z,16.10
2019-04-25T04:14:53.830Z,16.10
2019-04-25T04:17:38.530Z,16.00
2019-04-25T04:20:33.620Z,16.00
2019-04-25T04:23:11.270Z,16.00
2019-04-25T04:25:40.646Z,16.00
2019-04-25T04:28:09.812Z,16.00
2019-04-25T04:30:38.917Z,16.00
2019-04-25T04:33:08.560Z,16.00
2019-04-25T04:35:37.771Z,15.90
2019-04-25T04:38:08.058Z,16.00
2019-04-25T04:40:37.280Z,16.10
2019-04-25T04:43:06.378Z,16.10
2019-04-25T04:45:35.449Z,16.10
2019-04-25T04:48:04.583Z,16.00
2019-04-25T04:50:33.766Z,16.00
2019-04-25T04:53:03.876Z,15.90
2019-04-25T04:55:34.336Z,16.00
2019-04-25T04:58:04.281Z,15.90
2019-04-25T05:00:33.856Z,15.90
2019-04-25T05:03:15.804Z,15.80
2019-04-25T05:06:04.550Z,15.80
2019-04-25T05:08:36.626Z,15.80
2019-04-25T05:11:05.731Z,15.70
2019-04-25T05:13:34.827Z,15.70
2019-04-25T05:16:04.206Z,15.80
2019-04-25T05:18:39.343Z,15.80
2019-04-25T05:21:04.326Z,15.80
2019-04-25T05:23:34.379Z,15.90
2019-04-25T05:26:04.368Z,15.90
2019-04-25T05:28:33.655Z,15.90
2019-04-25T05:31:09.903Z,15.70
2019-04-25T05:33:39.006Z,15.70
2019-04-25T05:36:08.103Z,15.70
2019-04-25T05:38:37.255Z,15.60
2019-04-25T05:41:20.717Z,15.60
2019-04-25T05:43:50.172Z,15.60
2019-04-25T05:46:19.282Z,15.70
2019-04-25T05:48:48.387Z,15.70
2019-04-25T05:51:17.459Z,15.70
2019-04-25T05:53:47.188Z,15.80
2019-04-25T05:56:16.523Z,15.80
2019-04-25T05:58:45.703Z,15.80
2019-04-25T06:01:14.876Z,15.80
2019-04-25T06:03:44.463Z,15.80
2019-04-25T06:06:13.558Z,15.70
2019-04-25T06:08:49.577Z,15.80
2019-04-25T06:11:37.816Z,16.00
2019-04-25T06:14:09.162Z,16.10
2019-04-25T06:16:39.422Z,16.20
2019-04-25T06:19:34.066Z,16.30
2019-04-25T06:22:03.599Z,16.40
2019-04-25T06:24:38.785Z,16.40
2019-04-25T06:27:27.102Z,16.50
2019-04-25T06:30:11.344Z,16.50
2019-04-25T06:32:40.466Z,16.40
2019-04-25T06:35:09.535Z,16.50
2019-04-25T06:37:38.689Z,16.60
2019-04-25T06:40:08.482Z,16.80
2019-04-25T06:42:39.187Z,16.80
2019-04-25T06:45:28.061Z,16.90
2019-04-25T06:48:09.329Z,17.10
2019-04-25T06:50:38.458Z,16.90
2019-04-25T06:53:07.605Z,16.70
2019-04-25T06:55:36.673Z,16.60
2019-04-25T06:58:11.682Z,16.40
2019-04-25T07:00:41.150Z,16.30
2019-04-25T07:03:07.525Z,16.30
2019-04-25T07:05:40.446Z,16.30
2019-04-25T07:08:07.482Z,16.30
2019-04-25T07:10:36.575Z,16.30
2019-04-25T07:13:05.697Z,16.30
2019-04-25T07:15:35.288Z,16.30
2019-04-25T07:18:04.554Z,16.30
2019-04-25T07:20:34.565Z,16.40
2019-04-25T07:23:05.180Z,16.50
2019-04-25T07:25:36.966Z,16.60
2019-04-25T07:28:44.068Z,16.70
2019-04-25T07:31:33.489Z,16.90
2019-04-25T07:34:13.343Z,17.00
2019-04-25T07:36:42.666Z,17.10
2019-04-25T07:39:13.484Z,17.10
2019-04-25T07:41:44.173Z,17.10
2019-04-25T07:44:14.795Z,17.10
2019-04-25T07:46:44.111Z,17.10
2019-04-25T07:49:13.577Z,17.00
2019-04-25T07:51:43.207Z,17.00
2019-04-25T07:54:14.295Z,17.00
2019-04-25T07:56:43.991Z,17.00
2019-04-25T07:59:13.855Z,16.90
2019-04-25T08:01:43.682Z,16.90
2019-04-25T08:04:13.689Z,17.00
2019-04-25T08:06:44.491Z,17.00
2019-04-25T08:09:15.458Z,17.10
2019-04-25T08:11:44.610Z,17.10
2019-04-25T08:14:32.055Z,17.10
2019-04-25T08:17:03.707Z,17.20
2019-04-25T08:19:34.389Z,17.30
2019-04-25T08:22:04.822Z,17.30
2019-04-25T08:24:35.849Z,17.40
2019-04-25T08:27:05.355Z,17.30
2019-04-25T08:29:37.652Z,17.40
2019-04-25T08:32:05.292Z,17.50
2019-04-25T08:34:36.042Z,17.60
2019-04-25T08:37:17.054Z,17.60
2019-04-25T08:39:38.118Z,17.60
2019-04-25T08:42:07.262Z,17.80
2019-04-25T08:44:36.950Z,17.80
2019-04-25T08:47:06.317Z,17.80
2019-04-25T08:49:42.925Z,17.80
2019-04-25T08:52:13.240Z,17.70
2019-04-25T08:54:49.676Z,17.80
2019-04-25T08:57:36.522Z,17.80
2019-04-25T09:00:14.316Z,17.80
2019-04-25T09:02:47.195Z,17.70
2019-04-25T09:05:40.385Z,17.80
2019-04-25T09:08:09.616Z,17.70
2019-04-25T09:10:40.091Z,17.90
2019-04-25T09:13:09.406Z,18.00
2019-04-25T09:15:39.481Z,18.00
2019-04-25T09:18:08.782Z,18.00
2019-04-25T09:20:40.266Z,18.10
2019-04-25T09:23:08.834Z,18.20
2019-04-25T09:25:38.648Z,18.20
2019-04-25T09:28:07.906Z,18.30
2019-04-25T09:30:37.139Z,18.40
2019-04-25T09:33:07.363Z,18.60
2019-04-25T09:35:37.539Z,18.70
2019-04-25T09:38:06.933Z,18.80
2019-04-25T09:40:37.258Z,18.80
2019-04-25T09:43:06.665Z,18.80
2019-04-25T09:45:53.260Z,18.80
2019-04-25T09:48:44.611Z,18.90
2019-04-25T09:51:27.806Z,19.00
2019-04-25T09:54:03.498Z,19.10
2019-04-25T09:56:38.303Z,19.20
2019-04-25T09:59:26.798Z,19.30
2019-04-25T10:01:49.995Z,19.40
2019-04-25T10:04:19.588Z,19.40
2019-04-25T10:06:48.726Z,19.30
2019-04-25T10:09:18.403Z,19.20
2019-04-25T10:11:47.566Z,19.30
2019-04-25T10:14:38.948Z,19.40
2019-04-25T10:17:08.170Z,19.40
2019-04-25T10:19:37.733Z,19.40
2019-04-25T10:22:07.443Z,19.50
2019-04-25T10:24:37.396Z,19.60
2019-04-25T10:27:08.023Z,19.60
2019-04-25T10:29:42.815Z,19.70
2019-04-25T10:32:09.151Z,19.80
2019-04-25T10:34:38.286Z,19.90
2019-04-25T10:37:07.950Z,19.90
2019-04-25T10:39:37.043Z,20.00
2019-04-25T10:42:06.301Z,20.00
2019-04-25T10:44:35.391Z,20.20
2019-04-25T10:47:04.497Z,20.20
2019-04-25T10:49:34.496Z,20.30
2019-04-25T10:52:05.348Z,20.30
2019-04-25T10:54:35.151Z,20.30
2019-04-25T10:57:06.491Z,20.50
2019-04-25T10:59:35.339Z,20.50
2019-04-25T11:02:04.718Z,20.40
2019-04-25T11:04:48.214Z,20.50
2019-04-25T11:07:15.678Z,20.40
2019-04-25T11:09:45.577Z,20.40
2019-04-25T11:12:16.494Z,20.50
2019-04-25T11:14:46.366Z,20.60
2019-04-25T11:17:16.234Z,20.70
2019-04-25T11:19:45.367Z,20.80
2019-04-25T11:22:15.622Z,20.80
2019-04-25T11:24:45.755Z,20.70
2019-04-25T11:27:15.395Z,20.60
2019-04-25T11:29:45.071Z,20.70
2019-04-25T11:32:19.693Z,20.70
2019-04-25T11:34:47.723Z,20.80
2019-04-25T11:37:17.426Z,20.90
2019-04-25T11:40:08.365Z,21.00
2019-04-25T11:42:37.515Z,21.00
2019-04-25T11:45:07.584Z,21.00
2019-04-25T11:47:36.842Z,21.00
2019-04-25T11:50:07.915Z,21.10
2019-04-25T11:52:37.043Z,21.20
2019-04-25T11:55:06.411Z,21.20
2019-04-25T11:57:35.514Z,21.30
2019-04-25T12:00:05.314Z,21.20
2019-04-25T12:02:34.491Z,21.10
2019-04-25T12:05:03.606Z,21.20
2019-04-25T12:07:34.227Z,21.20
2019-04-25T12:10:05.149Z,21.30
2019-04-25T12:12:36.992Z,21.30
2019-04-25T12:15:06.163Z,21.30
2019-04-25T12:17:35.391Z,21.40
2019-04-25T12:20:04.818Z,21.60
2019-04-25T12:22:34.373Z,21.50
2019-04-25T12:25:04.641Z,21.40
2019-04-25T12:27:33.926Z,21.60
2019-04-25T12:30:03.865Z,21.60
2019-04-25T12:32:35.238Z,21.70
2019-04-25T12:35:06.193Z,21.80
2019-04-25T12:37:35.518Z,21.80
2019-04-25T12:40:06.332Z,21.90
2019-04-25T12:42:35.592Z,22.00
2019-04-25T12:45:39.716Z,21.90
2019-04-25T12:48:09.620Z,21.80
2019-04-25T12:50:38.841Z,21.70
2019-04-25T12:53:07.967Z,21.80
2019-04-25T12:55:37.189Z,21.70
2019-04-25T12:58:06.521Z,21.70
2019-04-25T13:00:47.491Z,21.70
2019-04-25T13:03:07.072Z,21.80
2019-04-25T13:05:36.350Z,21.80
2019-04-25T13:08:05.557Z,21.80
2019-04-25T13:10:35.518Z,21.90
2019-04-25T13:13:04.628Z,22.10
2019-04-25T13:15:34.387Z,22.10
2019-04-25T13:18:03.626Z,22.10
2019-04-25T13:20:32.871Z,22.20
2019-04-25T13:23:03.548Z,22.10
2019-04-25T13:25:34.253Z,22.10
2019-04-25T13:28:12.294Z,22.20
2019-04-25T13:31:01.335Z,22.00
2019-04-25T13:33:37.878Z,22.00
2019-04-25T13:36:12.432Z,22.20
2019-04-25T13:38:41.549Z,22.30
2019-04-25T13:41:10.634Z,22.30
2019-04-25T13:43:39.788Z,22.30
2019-04-25T13:46:08.970Z,22.10
2019-04-25T13:48:38.116Z,22.10
2019-04-25T13:51:07.218Z,22.30
2019-04-25T13:53:36.319Z,22.50
2019-04-25T13:56:05.510Z,22.60
2019-04-25T13:58:34.603Z,22.40
2019-04-25T14:01:12.780Z,22.30
2019-04-25T14:03:35.776Z,22.30
2019-04-25T14:06:05.151Z,22.40
2019-04-25T14:08:34.268Z,22.50
2019-04-25T14:11:05.152Z,22.70
2019-04-25T14:13:34.395Z,22.80
2019-04-25T14:16:22.570Z,22.90
2019-04-25T14:19:10.115Z,22.90
2019-04-25T14:21:39.384Z,23.00
2019-04-25T14:24:19.955Z,23.00
2019-04-25T14:26:39.289Z,23.00
2019-04-25T14:29:08.439Z,23.10
2019-04-25T14:31:45.571Z,23.00
2019-04-25T14:34:08.502Z,23.00
2019-04-25T14:36:37.650Z,23.00
2019-04-25T14:39:08.018Z,22.90
2019-04-25T14:41:37.091Z,22.80
2019-04-25T14:44:06.253Z,22.80
2019-04-25T14:46:35.738Z,22.80
2019-04-25T14:49:05.091Z,22.80
2019-04-25T14:51:34.251Z,23.00
2019-04-25T14:54:04.975Z,23.10
2019-04-25T14:56:46.071Z,23.10
2019-04-25T14:59:15.254Z,23.00
2019-04-25T15:01:45.370Z,23.00
2019-04-25T15:04:14.673Z,23.20
2019-04-25T15:06:43.831Z,23.10
2019-04-25T15:09:13.030Z,23.10
2019-04-25T15:11:42.141Z,23.20
2019-04-25T15:14:11.246Z,23.10
2019-04-25T15:16:40.338Z,23.20
2019-04-25T15:19:09.532Z,23.40
2019-04-25T15:21:38.685Z,23.30
2019-04-25T15:24:07.804Z,23.30
2019-04-25T15:26:36.911Z,23.20
2019-04-25T15:29:06.113Z,23.10
2019-04-25T15:31:35.324Z,23.10
2019-04-25T15:34:04.518Z,23.10
2019-04-25T15:36:54.625Z,23.00
2019-04-25T15:39:42.813Z,23.20
2019-04-25T15:42:34.055Z,23.30
2019-04-25T15:45:22.718Z,23.40
2019-04-25T15:47:51.887Z,23.40
2019-04-25T15:50:21.922Z,23.30
2019-04-25T15:52:51.803Z,23.30
2019-04-25T15:55:21.182Z,23.40
2019-04-25T15:57:50.374Z,23.50
2019-04-25T16:00:23.851Z,23.30
2019-04-25T16:02:53.264Z,23.30
2019-04-25T16:05:22.453Z,23.30
2019-04-25T16:07:51.662Z,23.30
2019-04-25T16:10:21.014Z,23.60
2019-04-25T16:12:50.089Z,23.70
2019-04-25T16:15:19.226Z,23.70
2019-04-25T16:17:48.395Z,23.70
2019-04-25T16:20:17.544Z,23.70
2019-04-25T16:22:46.634Z,23.70
2019-04-25T16:25:15.854Z,23.70
2019-04-25T16:27:44.971Z,23.70
2019-04-25T16:30:14.447Z,23.70
2019-04-25T16:32:43.634Z,23.70
2019-04-25T16:35:12.794Z,23.80
2019-04-25T16:37:41.936Z,23.80
2019-04-25T16:40:11.479Z,23.80
2019-04-25T16:42:40.635Z,23.70
2019-04-25T16:45:10.003Z,23.60
2019-04-25T16:47:39.395Z,23.50
2019-04-25T16:50:08.745Z,23.50
2019-04-25T16:52:38.034Z,23.40
2019-04-25T16:55:08.559Z,23.30
2019-04-25T16:57:37.629Z,23.20
2019-04-25T17:00:09.030Z,23.20
2019-04-25T17:02:41.016Z,23.20
2019-04-25T17:05:11.128Z,23.30
2019-04-25T17:07:40.996Z,23.20
2019-04-25T17:10:10.538Z,23.20
2019-04-25T17:12:40.794Z,23.20
2019-04-25T17:15:30.508Z,23.10
2019-04-25T17:18:13.417Z,23.10
2019-04-25T17:20:47.447Z,23.10
2019-04-25T17:23:16.642Z,23.10
2019-04-25T17:25:45.866Z,23.10
2019-04-25T17:28:15.366Z,23.10
2019-04-25T17:30:46.474Z,23.30
2019-04-25T17:33:23.186Z,23.80
2019-04-25T17:36:06.086Z,24.20
2019-04-25T17:38:57.318Z,23.90
2019-04-25T17:41:26.452Z,23.50
2019-04-25T17:43:55.534Z,23.20
2019-04-25T17:46:24.629Z,23.10
2019-04-25T17:48:53.778Z,22.90
2019-04-25T17:51:22.874Z,22.80
2019-04-25T17:53:51.970Z,22.80
2019-04-25T17:56:21.107Z,22.70
2019-04-25T17:58:50.214Z,22.60
2019-04-25T18:01:23.384Z,22.50
2019-04-25T18:03:52.450Z,22.30
2019-04-25T18:06:21.554Z,22.30
2019-04-25T18:08:50.741Z,22.20
2019-04-25T18:11:19.839Z,22.10
2019-04-25T18:13:48.958Z,22.00
2019-04-25T18:16:36.073Z,22.00
2019-04-25T18:19:25.060Z,22.00
2019-04-25T18:21:55.991Z,21.90
2019-04-25T18:24:43.338Z,21.90
2019-04-25T18:27:20.459Z,21.90
2019-04-25T18:29:49.578Z,21.80
2019-04-25T18:32:18.662Z,21.70
2019-04-25T18:35:01.181Z,21.70
2019-04-25T18:37:52.351Z,21.60
2019-04-25T18:40:33.062Z,21.50
2019-04-25T18:43:16.692Z,21.40
2019-04-25T18:45:48.126Z,21.40
2019-04-25T18:48:17.233Z,21.40
2019-04-25T18:50:46.728Z,21.30
2019-04-25T18:53:35.075Z,21.20
2019-04-25T18:56:21.883Z,21.20
2019-04-25T18:59:12.860Z,21.20
2019-04-25T19:02:03.822Z,21.00
2019-04-25T19:04:40.446Z,21.00
2019-04-25T19:07:21.944Z,21.00
2019-04-25T19:09:40.773Z,20.90
2019-04-25T19:12:10.037Z,20.90
2019-04-25T19:14:40.301Z,20.80
2019-04-25T19:17:10.805Z,20.70
2019-04-25T19:19:39.900Z,20.70
2019-04-25T19:22:09.366Z,20.60
2019-04-25T19:24:40.360Z,20.40
2019-04-25T19:27:09.299Z,20.40
2019-04-25T19:29:38.414Z,20.50
2019-04-25T19:32:07.606Z,20.50
2019-04-25T19:34:36.690Z,20.60
2019-04-25T19:37:05.802Z,20.50
2019-04-25T19:39:36.674Z,20.60
2019-04-25T19:42:24.260Z,20.60
2019-04-25T19:44:53.366Z,20.60
2019-04-25T19:47:22.709Z,20.50
2019-04-25T19:49:51.934Z,20.50
2019-04-25T19:52:21.097Z,20.50
2019-04-25T19:54:50.185Z,20.40
2019-04-25T19:57:20.938Z,20.50
2019-04-25T19:59:50.705Z,20.50
2019-04-25T20:02:42.975Z,20.50
2019-04-25T20:05:21.482Z,20.40
2019-04-25T20:07:55.759Z,20.30
2019-04-25T20:10:45.158Z,20.30
2019-04-25T20:13:14.415Z,20.40
2019-04-25T20:15:44.571Z,20.40
2019-04-25T20:18:14.351Z,20.30
2019-04-25T20:20:45.024Z,20.20
2019-04-25T20:23:15.074Z,20.20
2019-04-25T20:25:45.376Z,20.10
2019-04-25T20:28:15.057Z,20.00
2019-04-25T20:30:45.446Z,20.20
2019-04-25T20:33:14.864Z,20.20
2019-04-25T20:35:44.857Z,20.30
2019-04-25T20:38:14.890Z,20.10
2019-04-25T20:40:45.206Z,20.10
2019-04-25T20:43:15.262Z,20.10
2019-04-25T20:45:44.530Z,20.10
2019-04-25T20:48:13.673Z,20.10
2019-04-25T20:50:42.794Z,20.10
2019-04-25T20:53:11.978Z,20.10
2019-04-25T20:55:41.097Z,19.90
2019-04-25T20:58:10.286Z,19.90
2019-04-25T21:00:45.598Z,19.80
2019-04-25T21:03:14.782Z,19.90
2019-04-25T21:05:45.011Z,19.90
2019-04-25T21:08:14.122Z,19.90
2019-04-25T21:10:43.293Z,19.90
2019-04-25T21:13:16.226Z,19.80
2019-04-25T21:16:03.131Z,19.70
2019-04-25T21:18:51.005Z,19.70
2019-04-25T21:21:20.250Z,19.70
2019-04-25T21:23:50.660Z,19.80
2019-04-25T21:26:20.037Z,19.80
2019-04-25T21:28:50.173Z,19.80
2019-04-25T21:31:20.219Z,19.80
2019-04-25T21:33:49.477Z,19.80
2019-04-25T21:36:19.864Z,19.80
2019-04-25T21:38:49.334Z,19.60
2019-04-25T21:41:37.641Z,19.60
2019-04-25T21:44:07.290Z,19.50
2019-04-25T21:46:36.586Z,19.60
2019-04-25T21:49:06.310Z,19.60
2019-04-25T21:51:35.410Z,19.50
2019-04-25T21:54:04.597Z,19.60
2019-04-25T21:56:34.080Z,19.50
2019-04-25T21:59:04.022Z,19.50
2019-04-25T22:01:36.443Z,19.50
2019-04-25T22:04:06.046Z,19.50
2019-04-25T22:06:35.523Z,19.40
2019-04-25T22:09:07.710Z,19.40
2019-04-25T22:11:36.813Z,19.30
2019-04-25T22:14:06.698Z,19.30
2019-04-25T22:16:35.866Z,19.30
2019-04-25T22:19:06.383Z,19.30
2019-04-25T22:21:38.459Z,19.30
2019-04-25T22:24:11.203Z,19.30
2019-04-25T22:26:37.727Z,19.30
2019-04-25T22:29:07.553Z,19.20
2019-04-25T22:31:55.815Z,19.20
2019-04-25T22:34:37.708Z,19.30
2019-04-25T22:37:06.794Z,19.30
2019-04-25T22:39:36.935Z,19.30
2019-04-25T22:42:06.514Z,19.20
2019-04-25T22:44:35.870Z,19.20
2019-04-25T22:47:06.312Z,19.20
2019-04-25T22:49:35.532Z,19.10
2019-04-25T22:52:05.018Z,18.90
2019-04-25T22:54:34.277Z,19.00
2019-04-25T22:57:04.229Z,19.10
2019-04-25T22:59:33.784Z,19.00
2019-04-25T23:02:09.850Z,19.00
2019-04-25T23:05:05.110Z,19.00
2019-04-25T23:07:29.166Z,19.10
2019-04-25T23:09:58.545Z,19.00
2019-04-25T23:12:28.018Z,19.00
2019-04-25T23:14:57.155Z,19.00
2019-04-25T23:17:26.339Z,18.90
2019-04-25T23:19:55.707Z,19.00
2019-04-25T23:22:24.890Z,19.00
2019-04-25T23:25:09.937Z,19.00
2019-04-25T23:27:56.871Z,19.00
2019-04-25T23:30:31.051Z,18.90
2019-04-25T23:33:00.166Z,18.80
2019-04-25T23:35:33.017Z,18.80
2019-04-25T23:38:00.205Z,18.90
2019-04-25T23:40:29.315Z,19.00
2019-04-25T23:42:58.809Z,18.90
2019-04-25T23:45:27.879Z,18.90
2019-04-25T23:47:56.967Z,19.00
2019-04-25T23:50:26.326Z,18.90
2019-04-25T23:52:55.433Z,19.00
2019-04-25T23:55:24.779Z,19.10
2019-04-25T23:57:53.868Z,19.00
